aviador You're here:

KFTY Decoded Metar

ATLANTA/FULTON in GA, USA
Report Time2018-06-23 05:53:00
UTC Time2018-06-23 06:06:03
Flight Rules vfr VFR
WindCalm
Visibility9999 m
Phenomena:N/A
Clouds:Few 018 Hf
Scattered 060 Hf
CeilingNone
Temp22°C (ISA +9)
Dew Point22°C (100% RH)
QNH1012 hPa
Density Alt2,264 ft
Elevation863 ft
Report Wrong Elevation
Raw Report
METAR KFTY 230553Z 00000KT 10SM FEW018 SCT060 22/22 A2987 RMK AO2 SLP102
6//// T02220222 10228 20222 55004 $=

Extra information for KFTY:More info

Metar Taf Metar & Taf Last 4 Metars F.Rules Stats Wind Profile Meteogram Temp Stats Airport Information Weather charts Add Link Nearby VenuesMetar ALERT Operation Metar Decoded Social comments

AIRNAV info for KFTY